createdAt,value
2022-08-22T00:00:13.710Z,83.90
2022-08-22T00:02:46.055Z,71.00
2022-08-22T00:02:57.377Z,77.30
2022-08-22T00:03:08.632Z,71.80
2022-08-22T00:04:26.458Z,83.60
2022-08-22T00:08:34.843Z,82.40
2022-08-22T00:12:45.464Z,83.00
2022-08-22T00:16:58.061Z,83.00
2022-08-22T00:21:11.660Z,82.60
2022-08-22T00:25:33.122Z,83.70
2022-08-22T00:29:43.513Z,84.00
2022-08-22T00:33:49.354Z,83.60
2022-08-22T00:38:02.534Z,84.50
2022-08-22T00:42:42.465Z,85.40
2022-08-22T00:47:05.329Z,86.90
2022-08-22T00:51:32.798Z,88.00
2022-08-22T00:55:59.108Z,88.30
2022-08-22T01:00:17.827Z,88.10
2022-08-22T01:04:41.282Z,88.20
2022-08-22T01:08:58.335Z,88.70
2022-08-22T01:13:15.166Z,89.80
2022-08-22T01:17:50.183Z,90.20
2022-08-22T01:22:25.089Z,90.20
2022-08-22T01:27:13.835Z,90.30
2022-08-22T01:31:40.946Z,90.30
2022-08-22T01:36:02.202Z,90.30
2022-08-22T01:40:53.540Z,90.40
2022-08-22T01:45:33.709Z,90.60
2022-08-22T01:49:44.066Z,90.20
2022-08-22T01:53:58.990Z,90.60
2022-08-22T01:58:05.414Z,90.80
2022-08-22T02:02:27.310Z,90.90
2022-08-22T02:06:41.760Z,90.70
2022-08-22T02:10:55.124Z,91.00
2022-08-22T02:15:15.928Z,91.00
2022-08-22T02:19:34.096Z,91.00
2022-08-22T02:23:47.978Z,91.00
2022-08-22T02:27:58.706Z,91.00
2022-08-22T02:32:20.445Z,91.00
2022-08-22T02:36:29.818Z,90.90
2022-08-22T02:40:38.077Z,90.70
2022-08-22T02:44:49.376Z,90.80
2022-08-22T02:49:03.962Z,90.80
2022-08-22T02:53:13.642Z,91.20
2022-08-22T02:57:24.349Z,91.40
2022-08-22T03:01:41.231Z,91.60
2022-08-22T03:05:52.507Z,91.70
2022-08-22T03:10:04.062Z,91.80
2022-08-22T03:14:12.784Z,91.80
2022-08-22T03:18:23.566Z,91.80
2022-08-22T03:22:34.412Z,91.90
2022-08-22T03:26:45.824Z,92.10
2022-08-22T03:30:58.827Z,92.30
2022-08-22T03:35:06.420Z,92.40
2022-08-22T03:39:17.453Z,92.70
2022-08-22T03:43:38.446Z,92.70
2022-08-22T03:48:10.025Z,92.60
2022-08-22T03:52:33.550Z,92.80
2022-08-22T03:57:18.404Z,93.10
2022-08-22T04:01:43.698Z,92.90
2022-08-22T04:06:12.854Z,93.00
2022-08-22T04:10:44.918Z,93.10
2022-08-22T04:15:15.332Z,93.00
2022-08-22T04:19:41.869Z,93.00
2022-08-22T04:23:59.135Z,93.10
2022-08-22T04:28:09.695Z,92.70
2022-08-22T04:32:21.942Z,93.00
2022-08-22T04:36:30.256Z,93.10
2022-08-22T04:40:40.072Z,93.30
2022-08-22T04:44:51.500Z,93.30
2022-08-22T04:48:58.121Z,93.00
2022-08-22T04:53:13.789Z,92.90
2022-08-22T04:57:26.038Z,92.70
2022-08-22T05:01:42.836Z,92.50
2022-08-22T05:05:48.560Z,92.70
2022-08-22T05:09:56.361Z,92.70
2022-08-22T05:14:04.383Z,92.50
2022-08-22T05:18:13.381Z,92.60
2022-08-22T05:22:21.684Z,92.70
2022-08-22T05:26:25.488Z,92.50
2022-08-22T05:30:31.316Z,92.20
2022-08-22T05:34:39.071Z,92.20
2022-08-22T05:38:47.122Z,92.70
2022-08-22T05:47:00.896Z,99.90
2022-08-22T05:51:15.505Z,75.70
2022-08-22T05:55:25.480Z,73.00
2022-08-22T05:59:33.642Z,73.80
2022-08-22T06:03:41.983Z,75.60
2022-08-22T06:07:49.967Z,73.60
2022-08-22T06:11:58.466Z,73.90
2022-08-22T06:16:11.682Z,75.20
2022-08-22T06:20:19.161Z,76.80
2022-08-22T06:24:27.149Z,76.30
2022-08-22T06:28:54.436Z,73.40
2022-08-22T06:33:03.506Z,73.20
2022-08-22T06:37:12.270Z,74.10
2022-08-22T06:41:16.515Z,76.00
2022-08-22T06:45:22.988Z,76.40
2022-08-22T06:49:27.800Z,77.60
2022-08-22T06:53:36.617Z,77.30
2022-08-22T06:57:49.646Z,77.20
2022-08-22T07:01:56.907Z,77.20
2022-08-22T07:06:00.390Z,77.70
2022-08-22T07:10:03.394Z,78.30
2022-08-22T07:14:12.024Z,77.90
2022-08-22T07:18:19.356Z,77.50
2022-08-22T07:22:24.777Z,77.50
2022-08-22T07:26:33.594Z,75.00
2022-08-22T07:30:46.329Z,74.20
2022-08-22T07:35:01.898Z,74.80
2022-08-22T07:39:23.764Z,75.80
2022-08-22T07:43:32.236Z,75.10
2022-08-22T07:47:59.201Z,75.50
2022-08-22T07:52:06.588Z,74.00
2022-08-22T07:56:15.489Z,67.30
2022-08-22T08:00:21.113Z,67.80
2022-08-22T08:04:30.210Z,65.40
2022-08-22T08:08:40.948Z,64.70
2022-08-22T08:12:58.034Z,65.50
2022-08-22T08:17:09.714Z,64.20
2022-08-22T08:21:31.587Z,62.80
2022-08-22T08:25:53.610Z,62.90
2022-08-22T08:30:00.315Z,62.50
2022-08-22T08:34:07.912Z,62.10
2022-08-22T08:38:16.649Z,57.80
2022-08-22T08:42:56.088Z,57.60
2022-08-22T08:47:25.432Z,56.30
2022-08-22T08:52:12.489Z,55.70
2022-08-22T08:56:26.765Z,54.70
2022-08-22T09:00:48.975Z,54.20
2022-08-22T09:05:19.688Z,53.60
2022-08-22T09:09:35.853Z,52.80
2022-08-22T09:13:51.914Z,51.80
2022-08-22T09:18:30.923Z,52.00
2022-08-22T09:23:10.096Z,50.50
2022-08-22T09:27:19.365Z,50.20
2022-08-22T09:31:48.182Z,48.70
2022-08-22T09:36:05.209Z,50.00
2022-08-22T09:40:18.828Z,49.70
2022-08-22T09:44:34.287Z,48.80
2022-08-22T09:48:59.022Z,47.00
2022-08-22T09:53:10.500Z,47.50
2022-08-22T09:57:22.859Z,45.80
2022-08-22T10:01:32.921Z,47.10
2022-08-22T10:05:46.307Z,46.70
2022-08-22T10:09:58.065Z,44.70
2022-08-22T10:14:09.107Z,44.90
2022-08-22T10:18:22.831Z,45.40
2022-08-22T10:22:44.555Z,44.60
2022-08-22T10:26:51.915Z,43.70
2022-08-22T10:31:12.889Z,44.20
2022-08-22T10:35:27.492Z,44.50
2022-08-22T10:39:43.977Z,44.50
2022-08-22T10:44:00.514Z,43.40
2022-08-22T10:48:23.363Z,42.70
2022-08-22T10:52:32.773Z,43.40
2022-08-22T10:56:43.865Z,43.60
2022-08-22T11:00:51.200Z,43.10
2022-08-22T11:05:16.094Z,43.50
2022-08-22T11:09:32.150Z,42.10
2022-08-22T11:13:49.899Z,41.40
2022-08-22T11:18:14.697Z,41.80
2022-08-22T11:22:31.062Z,42.30
2022-08-22T11:26:47.266Z,41.10
2022-08-22T11:31:07.204Z,41.60
2022-08-22T11:35:21.247Z,40.50
2022-08-22T11:39:30.550Z,40.60
2022-08-22T11:43:44.897Z,41.00
2022-08-22T11:48:00.189Z,41.00
2022-08-22T11:52:24.245Z,40.60
2022-08-22T11:56:35.126Z,40.70
2022-08-22T12:00:50.004Z,41.40
2022-08-22T12:04:59.686Z,40.10
2022-08-22T12:09:17.925Z,40.40
2022-08-22T12:13:35.062Z,40.40
2022-08-22T12:18:15.345Z,40.40
2022-08-22T12:22:56.479Z,40.50
2022-08-22T12:27:28.722Z,40.50
2022-08-22T12:31:40.937Z,39.90
2022-08-22T12:35:55.264Z,40.00
2022-08-22T12:40:20.182Z,40.90
2022-08-22T12:44:37.317Z,41.20
2022-08-22T12:48:54.214Z,41.20
2022-08-22T12:53:18.164Z,41.20
2022-08-22T12:57:36.417Z,40.70
2022-08-22T13:01:44.208Z,40.40
2022-08-22T13:05:56.965Z,39.40
2022-08-22T13:10:33.141Z,39.30
2022-08-22T13:14:38.047Z,39.70
2022-08-22T13:18:53.562Z,39.50
2022-08-22T13:22:59.389Z,39.90
2022-08-22T13:27:10.148Z,39.60
2022-08-22T13:31:25.512Z,38.80
2022-08-22T13:35:34.168Z,38.70
2022-08-22T13:39:41.867Z,39.10
2022-08-22T13:44:02.124Z,39.00
2022-08-22T13:48:11.372Z,39.50
2022-08-22T13:52:29.295Z,39.80
2022-08-22T13:56:43.530Z,39.40
2022-08-22T14:01:14.601Z,39.10
2022-08-22T14:05:25.963Z,38.10
2022-08-22T14:09:39.004Z,39.30
2022-08-22T14:13:46.099Z,39.10
2022-08-22T14:17:50.830Z,38.10
2022-08-22T14:21:59.582Z,38.60
2022-08-22T14:26:02.910Z,40.00
2022-08-22T14:30:13.803Z,39.30
2022-08-22T14:34:17.419Z,39.60
2022-08-22T14:38:30.457Z,39.70
2022-08-22T14:42:44.383Z,39.00
2022-08-22T14:46:52.320Z,39.00
2022-08-22T14:50:57.982Z,39.40
2022-08-22T14:55:16.713Z,39.40
2022-08-22T14:59:33.142Z,38.90
2022-08-22T15:03:39.074Z,39.10
2022-08-22T15:07:43.633Z,39.30
2022-08-22T15:11:53.409Z,39.50
2022-08-22T15:16:03.510Z,39.00
2022-08-22T15:20:22.875Z,38.90
2022-08-22T15:24:31.916Z,39.40
2022-08-22T15:28:52.782Z,41.10
2022-08-22T15:33:10.315Z,40.30
2022-08-22T15:37:32.588Z,39.90
2022-08-22T15:41:44.844Z,40.00
2022-08-22T15:45:52.837Z,39.90
2022-08-22T15:49:59.678Z,39.90
2022-08-22T15:54:16.432Z,39.90
2022-08-22T15:58:27.494Z,40.30
2022-08-22T16:02:35.752Z,40.60
2022-08-22T16:06:44.989Z,40.80
2022-08-22T16:10:54.933Z,41.10
2022-08-22T16:14:58.841Z,40.90
2022-08-22T16:19:24.886Z,41.40
2022-08-22T16:23:28.029Z,42.00
2022-08-22T16:27:31.311Z,41.70
2022-08-22T16:31:38.710Z,41.40
2022-08-22T16:36:25.020Z,41.30
2022-08-22T16:40:29.373Z,41.80
2022-08-22T16:44:43.305Z,42.00
2022-08-22T16:48:46.763Z,42.50
2022-08-22T16:53:00.854Z,42.70
2022-08-22T16:57:14.697Z,42.80
2022-08-22T17:01:23.845Z,43.10
2022-08-22T17:05:41.623Z,43.30
2022-08-22T17:10:12.490Z,43.30
2022-08-22T17:14:33.292Z,43.50
2022-08-22T17:19:09.121Z,44.40
2022-08-22T17:23:19.895Z,44.70
2022-08-22T17:27:29.186Z,44.80
2022-08-22T17:31:44.810Z,44.90
2022-08-22T17:35:59.607Z,44.80
2022-08-22T17:40:17.649Z,45.10
2022-08-22T17:44:29.949Z,45.40
2022-08-22T17:48:47.960Z,45.70
2022-08-22T17:52:55.073Z,45.90
2022-08-22T17:57:06.169Z,46.00
2022-08-22T18:01:13.578Z,46.70
2022-08-22T18:05:21.261Z,46.80
2022-08-22T18:09:32.221Z,47.10
2022-08-22T18:13:43.324Z,47.60
2022-08-22T18:17:53.207Z,48.10
2022-08-22T18:22:02.056Z,47.90
2022-08-22T18:26:18.232Z,47.90
2022-08-22T18:30:23.621Z,48.30
2022-08-22T18:34:32.794Z,48.20
2022-08-22T18:38:42.095Z,48.60
2022-08-22T18:42:51.677Z,49.30
2022-08-22T18:46:56.817Z,50.10
2022-08-22T18:51:24.499Z,50.60
2022-08-22T18:55:46.058Z,50.90
2022-08-22T19:00:04.723Z,51.30
2022-08-22T19:04:36.246Z,51.50
2022-08-22T19:09:02.879Z,51.90
2022-08-22T19:13:25.368Z,52.00
2022-08-22T19:17:43.620Z,53.50
2022-08-22T19:22:23.003Z,53.80
2022-08-22T19:26:30.676Z,54.80
2022-08-22T19:30:43.897Z,54.90
2022-08-22T19:34:47.150Z,54.90
2022-08-22T19:38:57.677Z,55.40
2022-08-22T19:43:02.189Z,56.30
2022-08-22T19:47:13.269Z,57.90
2022-08-22T19:51:26.739Z,57.90
2022-08-22T19:55:44.944Z,58.40
2022-08-22T20:00:00.017Z,59.20
2022-08-22T20:04:09.613Z,60.20
2022-08-22T20:08:25.569Z,61.00
2022-08-22T20:12:37.775Z,62.90
2022-08-22T20:17:00.109Z,64.40
2022-08-22T20:21:04.467Z,64.60
2022-08-22T20:25:41.389Z,65.10
2022-08-22T20:29:39.691Z,64.60
2022-08-22T20:33:46.172Z,63.60
2022-08-22T20:38:10.897Z,63.60
2022-08-22T20:42:16.815Z,63.40
2022-08-22T20:46:33.301Z,63.40
2022-08-22T20:50:36.362Z,63.60
2022-08-22T20:54:42.124Z,63.60
2022-08-22T20:58:48.856Z,63.80
2022-08-22T21:02:57.321Z,63.90
2022-08-22T21:07:02.518Z,64.30
2022-08-22T21:11:25.644Z,63.80
2022-08-22T21:15:34.661Z,64.10
2022-08-22T21:19:38.012Z,63.10
2022-08-22T21:23:46.329Z,62.60
2022-08-22T21:27:53.493Z,62.20
2022-08-22T21:32:04.430Z,62.30
2022-08-22T21:36:11.781Z,62.50
2022-08-22T21:40:18.458Z,62.60
2022-08-22T21:44:33.449Z,62.60
2022-08-22T21:48:43.662Z,62.40
2022-08-22T21:53:02.126Z,62.30
2022-08-22T21:57:17.969Z,62.50
2022-08-22T22:01:33.645Z,62.70
2022-08-22T22:05:37.104Z,62.90
2022-08-22T22:09:39.888Z,62.70
2022-08-22T22:13:49.955Z,62.40
2022-08-22T22:17:55.107Z,62.10
2022-08-22T22:21:58.037Z,61.60
2022-08-22T22:26:03.262Z,61.30
2022-08-22T22:30:07.730Z,60.90
2022-08-22T22:34:12.405Z,60.50
2022-08-22T22:38:18.418Z,59.80
2022-08-22T22:42:23.423Z,59.80
2022-08-22T22:46:26.782Z,59.50
2022-08-22T22:50:31.321Z,58.90
2022-08-22T22:54:34.182Z,58.30
2022-08-22T22:58:38.172Z,57.90
2022-08-22T23:02:41.519Z,57.60
2022-08-22T23:06:45.612Z,57.40
2022-08-22T23:10:48.400Z,57.20
2022-08-22T23:14:51.490Z,56.80
2022-08-22T23:18:56.119Z,56.70
2022-08-22T23:23:00.500Z,56.60
2022-08-22T23:27:05.754Z,56.60
2022-08-22T23:31:14.350Z,56.60
2022-08-22T23:35:17.208Z,56.40
2022-08-22T23:39:22.539Z,56.30
2022-08-22T23:43:25.709Z,56.30
2022-08-22T23:47:28.581Z,56.30
2022-08-22T23:51:31.488Z,56.20
2022-08-22T23:55:35.580Z,56.30
2022-08-22T23:59:40.706Z,56.20
